createdAt,value
2022-11-15T00:00:29.619Z,33.53
2022-11-15T00:03:53.835Z,36.07
2022-11-15T00:07:40.273Z,37.17
2022-11-15T00:10:57.589Z,37.27
2022-11-15T00:14:19.082Z,34.47
2022-11-15T00:17:41.841Z,37.27
2022-11-15T00:21:09.753Z,37.40
2022-11-15T00:24:31.418Z,37.90
2022-11-15T00:27:57.535Z,38.30
2022-11-15T00:31:19.299Z,40.10
2022-11-15T00:34:42.511Z,42.30
2022-11-15T00:38:04.581Z,37.27
2022-11-15T00:41:26.193Z,38.07
2022-11-15T00:44:47.882Z,36.97
2022-11-15T00:48:09.842Z,39.33
2022-11-15T00:51:32.560Z,38.40
2022-11-15T00:54:54.462Z,39.63
2022-11-15T00:58:16.191Z,40.00
2022-11-15T01:01:37.823Z,40.67
2022-11-15T01:04:59.492Z,37.93
2022-11-15T01:08:22.583Z,37.97
2022-11-15T01:11:44.660Z,39.00
2022-11-15T01:15:07.678Z,41.13
2022-11-15T01:18:29.084Z,38.13
2022-11-15T01:21:51.301Z,40.53
2022-11-15T01:25:14.069Z,38.23
2022-11-15T01:28:37.285Z,37.00
2022-11-15T01:31:58.609Z,36.63
2022-11-15T01:35:21.073Z,38.63
2022-11-15T01:38:42.790Z,38.60
2022-11-15T01:42:05.969Z,36.30
2022-11-15T01:45:28.501Z,37.90
2022-11-15T01:48:52.300Z,36.90
2022-11-15T01:52:19.656Z,35.83
2022-11-15T01:55:41.131Z,36.53
2022-11-15T01:59:06.877Z,36.47
2022-11-15T02:02:28.983Z,36.67
2022-11-15T02:05:52.269Z,35.83
2022-11-15T02:09:14.952Z,35.53
2022-11-15T02:12:36.843Z,38.83
2022-11-15T02:16:07.100Z,40.23
2022-11-15T02:19:56.873Z,37.87
2022-11-15T02:23:53.105Z,39.80
2022-11-15T02:27:40.263Z,37.30
2022-11-15T02:31:08.423Z,36.20
2022-11-15T02:34:41.837Z,38.10
2022-11-15T02:38:12.163Z,40.00
2022-11-15T02:41:43.047Z,36.03
2022-11-15T02:45:10.480Z,38.50
2022-11-15T02:48:34.379Z,38.60
2022-11-15T02:51:57.919Z,36.77
2022-11-15T02:55:32.589Z,37.70
2022-11-15T02:59:15.773Z,35.90
2022-11-15T03:03:05.861Z,37.50
2022-11-15T03:06:37.658Z,38.17
2022-11-15T03:10:08.229Z,36.27
2022-11-15T03:13:37.387Z,39.57
2022-11-15T03:17:05.125Z,38.53
2022-11-15T03:20:29.109Z,39.47
2022-11-15T03:23:53.675Z,38.37
2022-11-15T03:27:21.745Z,39.73
2022-11-15T03:30:45.519Z,36.37
2022-11-15T03:34:13.497Z,38.20
2022-11-15T03:37:43.382Z,36.20
2022-11-15T03:41:15.946Z,36.63
2022-11-15T03:44:47.714Z,35.10
2022-11-15T03:48:16.924Z,38.90
2022-11-15T03:51:38.637Z,37.33
2022-11-15T03:55:03.874Z,40.90
2022-11-15T03:58:27.012Z,37.83
2022-11-15T04:01:48.930Z,38.43
2022-11-15T04:05:10.434Z,37.30
2022-11-15T04:08:32.458Z,38.90
2022-11-15T04:11:54.686Z,37.53
2022-11-15T04:15:22.623Z,39.03
2022-11-15T04:18:44.333Z,38.47
2022-11-15T04:22:23.706Z,40.70
2022-11-15T04:25:46.753Z,41.80
2022-11-15T04:29:25.904Z,39.57
2022-11-15T04:32:48.937Z,41.17
2022-11-15T04:36:28.618Z,38.33
2022-11-15T04:39:50.514Z,40.50
2022-11-15T04:43:13.918Z,40.27
2022-11-15T04:46:35.336Z,40.43
2022-11-15T04:49:58.359Z,39.53
2022-11-15T04:53:20.192Z,39.63
2022-11-15T04:56:42.106Z,40.83
2022-11-15T05:00:05.617Z,43.43
2022-11-15T05:03:44.357Z,40.80
2022-11-15T05:07:07.678Z,40.93
2022-11-15T05:10:29.246Z,42.27
2022-11-15T05:13:51.929Z,40.57
2022-11-15T05:17:13.636Z,40.17
2022-11-15T05:20:35.824Z,42.83
2022-11-15T05:23:59.384Z,40.63
2022-11-15T05:27:20.834Z,40.73
2022-11-15T05:30:42.607Z,39.47
2022-11-15T05:34:06.890Z,40.77
2022-11-15T05:37:28.577Z,39.30
2022-11-15T05:40:51.776Z,42.37
2022-11-15T05:44:17.386Z,40.17
2022-11-15T05:47:40.962Z,39.37
2022-11-15T05:51:04.666Z,38.97
2022-11-15T05:54:27.473Z,38.47
2022-11-15T05:57:51.000Z,39.03
2022-11-15T06:01:12.877Z,38.73
2022-11-15T06:04:34.709Z,37.93
2022-11-15T06:07:59.794Z,36.50
2022-11-15T06:11:21.242Z,37.90
2022-11-15T06:14:44.047Z,38.67
2022-11-15T06:18:06.711Z,40.03
2022-11-15T06:21:30.076Z,40.30
2022-11-15T06:24:51.826Z,38.20
2022-11-15T06:28:13.521Z,42.43
2022-11-15T06:31:38.310Z,39.80
2022-11-15T06:35:00.123Z,41.17
2022-11-15T06:38:21.891Z,40.63
2022-11-15T06:41:43.529Z,39.57
2022-11-15T06:45:06.834Z,40.60
2022-11-15T06:48:30.007Z,40.33
2022-11-15T06:51:51.626Z,41.83
2022-11-15T06:55:13.421Z,41.93
2022-11-15T06:58:35.995Z,42.07
2022-11-15T07:01:57.503Z,41.30
2022-11-15T07:05:20.734Z,39.67
2022-11-15T07:08:43.543Z,38.97
2022-11-15T07:12:10.010Z,39.97
2022-11-15T07:15:32.249Z,41.63
2022-11-15T07:18:54.787Z,38.80
2022-11-15T07:22:17.557Z,43.40
2022-11-15T07:25:42.164Z,38.80
2022-11-15T07:29:04.156Z,36.60
2022-11-15T07:32:26.811Z,40.10
2022-11-15T07:35:50.186Z,39.80
2022-11-15T07:39:17.172Z,38.57
2022-11-15T07:42:54.632Z,41.40
2022-11-15T07:46:16.978Z,40.17
2022-11-15T07:49:38.543Z,38.67
2022-11-15T07:53:01.761Z,40.37
2022-11-15T07:56:30.091Z,42.83
2022-11-15T07:59:52.192Z,42.27
2022-11-15T08:03:21.304Z,41.20
2022-11-15T08:06:43.719Z,40.97
2022-11-15T08:10:07.033Z,40.27
2022-11-15T08:13:33.756Z,44.60
2022-11-15T08:16:56.925Z,45.80
2022-11-15T08:20:28.352Z,44.33
2022-11-15T08:23:51.160Z,42.20
2022-11-15T08:27:16.558Z,43.83
2022-11-15T08:30:44.048Z,44.87
2022-11-15T08:34:06.317Z,42.90
2022-11-15T08:37:27.814Z,43.90
2022-11-15T08:40:49.550Z,44.13
2022-11-15T08:44:11.241Z,43.93
2022-11-15T08:47:34.471Z,43.53
2022-11-15T08:50:56.735Z,42.90
2022-11-15T08:54:18.884Z,41.77
2022-11-15T08:57:46.811Z,43.60
2022-11-15T09:01:18.344Z,43.37
2022-11-15T09:04:51.684Z,44.10
2022-11-15T09:08:40.858Z,42.27
2022-11-15T09:12:01.190Z,44.80
2022-11-15T09:15:24.428Z,42.00
2022-11-15T09:18:46.257Z,39.20
2022-11-15T09:22:10.562Z,39.20
2022-11-15T09:25:33.310Z,41.70
2022-11-15T09:28:55.123Z,38.43
2022-11-15T09:32:16.725Z,38.00
2022-11-15T09:35:38.587Z,38.87
2022-11-15T09:39:01.976Z,38.43
2022-11-15T09:42:53.845Z,37.43
2022-11-15T09:46:22.690Z,36.57
2022-11-15T09:49:44.598Z,34.50
2022-11-15T09:53:00.999Z,36.23
2022-11-15T09:56:15.224Z,34.00
2022-11-15T10:03:31.673Z,31.87
2022-11-15T10:06:41.722Z,29.07
2022-11-15T10:09:51.253Z,27.93
2022-11-15T10:12:55.991Z,26.90
2022-11-15T10:16:13.223Z,26.80
2022-11-15T10:19:28.702Z,26.30
2022-11-15T10:22:38.882Z,26.83
2022-11-15T10:25:46.424Z,25.20
2022-11-15T10:28:52.337Z,26.70
2022-11-15T10:31:55.390Z,25.30
2022-11-15T10:34:58.307Z,25.33
2022-11-15T10:38:08.605Z,23.47
2022-11-15T10:41:18.134Z,25.67
2022-11-15T10:44:30.986Z,23.80
2022-11-15T10:47:39.894Z,22.07
2022-11-15T10:50:45.317Z,21.73
2022-11-15T10:53:49.022Z,19.67
2022-11-15T10:56:55.368Z,20.73
2022-11-15T11:00:04.484Z,20.80
2022-11-15T11:03:28.622Z,21.77
2022-11-15T11:06:34.363Z,20.43
2022-11-15T11:09:39.983Z,21.00
2022-11-15T11:12:48.587Z,20.00
2022-11-15T11:16:07.678Z,19.27
2022-11-15T11:19:33.663Z,20.20
2022-11-15T11:22:53.467Z,19.07
2022-11-15T11:26:13.874Z,20.07
2022-11-15T11:29:31.421Z,19.40
2022-11-15T11:32:59.749Z,19.97
2022-11-15T11:36:17.945Z,18.07
2022-11-15T11:39:32.754Z,19.87
2022-11-15T11:42:50.415Z,19.43
2022-11-15T11:46:16.862Z,20.37
2022-11-15T11:49:30.613Z,19.67
2022-11-15T11:52:41.397Z,19.70
2022-11-15T11:55:50.006Z,19.13
2022-11-15T11:58:56.250Z,17.87
2022-11-15T12:02:03.463Z,19.93
2022-11-15T12:05:16.386Z,19.00
2022-11-15T12:08:35.574Z,18.73
2022-11-15T12:11:53.194Z,18.17
2022-11-15T12:14:59.924Z,19.20
2022-11-15T12:18:03.740Z,20.53
2022-11-15T12:21:16.779Z,20.17
2022-11-15T12:24:27.879Z,20.00
2022-11-15T12:27:43.800Z,18.27
2022-11-15T12:30:55.940Z,18.43
2022-11-15T12:34:04.388Z,18.10
2022-11-15T12:37:59.312Z,19.33
2022-11-15T12:41:17.975Z,17.13
2022-11-15T12:45:00.925Z,16.93
2022-11-15T12:48:58.486Z,17.90
2022-11-15T12:52:11.296Z,17.90
2022-11-15T12:55:35.085Z,17.43
2022-11-15T12:58:47.734Z,17.27
2022-11-15T13:02:20.143Z,17.47
2022-11-15T13:06:08.454Z,16.50
2022-11-15T13:10:00.291Z,15.67
2022-11-15T13:13:07.019Z,15.27
2022-11-15T13:16:10.109Z,15.98
2022-11-15T13:19:13.547Z,16.63
2022-11-15T13:22:34.146Z,25.13
2022-11-15T13:26:03.675Z,15.87
2022-11-15T13:29:18.699Z,16.77
2022-11-15T13:32:22.521Z,14.53
2022-11-15T13:35:27.994Z,15.07
2022-11-15T13:38:35.160Z,15.50
2022-11-15T13:41:49.523Z,16.27
2022-11-15T13:45:02.245Z,16.27
2022-11-15T13:48:07.119Z,15.40
2022-11-15T13:51:19.414Z,16.47
2022-11-15T13:54:28.086Z,17.40
2022-11-15T13:57:39.549Z,16.87
2022-11-15T14:00:46.441Z,16.13
2022-11-15T14:03:58.226Z,17.50
2022-11-15T14:07:04.274Z,16.20
2022-11-15T14:10:27.444Z,16.50
2022-11-15T14:13:33.744Z,16.50
2022-11-15T14:16:40.532Z,15.03
2022-11-15T14:19:43.956Z,15.07
2022-11-15T14:22:54.813Z,15.50
2022-11-15T14:25:59.776Z,18.10
2022-11-15T14:29:24.462Z,18.30
2022-11-15T14:32:30.599Z,16.50
2022-11-15T14:35:35.529Z,17.47
2022-11-15T14:38:38.544Z,17.77
2022-11-15T14:41:41.945Z,17.40
2022-11-15T14:44:46.266Z,19.13
2022-11-15T14:47:51.045Z,17.43
2022-11-15T14:50:54.076Z,18.97
2022-11-15T14:53:57.214Z,18.37
2022-11-15T14:57:00.182Z,20.60
2022-11-15T15:00:04.129Z,18.77
2022-11-15T15:03:17.345Z,19.30
2022-11-15T15:06:20.769Z,19.80
2022-11-15T15:09:24.229Z,18.27
2022-11-15T15:12:27.194Z,18.43
2022-11-15T15:15:35.451Z,18.33
2022-11-15T15:18:39.733Z,19.70
2022-11-15T15:21:43.185Z,18.60
2022-11-15T15:24:47.346Z,18.27
2022-11-15T15:27:51.461Z,18.90
2022-11-15T15:30:54.626Z,18.67
2022-11-15T15:34:02.406Z,18.87
2022-11-15T15:37:26.737Z,20.97
2022-11-15T15:40:32.152Z,19.37
2022-11-15T15:43:35.127Z,19.07
2022-11-15T15:46:38.730Z,20.70
2022-11-15T15:49:43.962Z,21.27
2022-11-15T15:52:46.914Z,19.43
2022-11-15T15:55:49.882Z,20.03
2022-11-15T15:58:53.791Z,19.93
2022-11-15T16:01:56.791Z,20.80
2022-11-15T16:05:01.178Z,19.30
2022-11-15T16:08:05.770Z,23.07
2022-11-15T16:11:10.517Z,22.87
2022-11-15T16:14:14.027Z,21.67
2022-11-15T16:17:21.316Z,24.27
2022-11-15T16:20:37.091Z,21.40
2022-11-15T16:23:40.116Z,25.73
2022-11-15T16:26:43.645Z,23.17
2022-11-15T16:29:47.797Z,24.23
2022-11-15T16:32:50.831Z,25.70
2022-11-15T16:35:55.258Z,25.03
2022-11-15T16:38:58.707Z,25.63
2022-11-15T16:42:03.421Z,25.63
2022-11-15T16:45:07.761Z,27.07
2022-11-15T16:48:23.398Z,29.33
2022-11-15T16:51:28.000Z,31.20
2022-11-15T16:54:31.556Z,31.43
2022-11-15T16:57:34.722Z,34.63
2022-11-15T17:00:37.981Z,37.10
2022-11-15T17:03:40.937Z,35.43
2022-11-15T17:06:49.230Z,37.90
2022-11-15T17:09:52.470Z,36.17
2022-11-15T17:12:59.851Z,40.50
2022-11-15T17:16:11.822Z,42.57
2022-11-15T17:19:16.240Z,39.63
2022-11-15T17:22:20.498Z,43.57
2022-11-15T17:25:24.045Z,42.40
2022-11-15T17:28:27.010Z,42.67
2022-11-15T17:31:33.663Z,42.60
2022-11-15T17:34:36.933Z,42.83
2022-11-15T17:37:41.194Z,45.60
2022-11-15T17:40:44.417Z,41.77
2022-11-15T17:43:47.709Z,43.47
2022-11-15T17:46:50.663Z,44.20
2022-11-15T17:49:56.991Z,43.63
2022-11-15T17:53:01.849Z,44.07
2022-11-15T17:56:07.283Z,45.03
2022-11-15T17:59:14.789Z,41.40
2022-11-15T18:02:20.343Z,44.13
2022-11-15T18:05:23.736Z,41.60
2022-11-15T18:08:28.115Z,44.57
2022-11-15T18:11:33.484Z,44.30
2022-11-15T18:14:36.676Z,42.27
2022-11-15T18:17:39.805Z,43.30
2022-11-15T18:20:42.808Z,45.40
2022-11-15T18:23:48.143Z,44.43
2022-11-15T18:26:51.558Z,45.20
2022-11-15T18:29:54.534Z,46.10
2022-11-15T18:32:57.505Z,42.70
2022-11-15T18:36:02.515Z,43.10
2022-11-15T18:39:07.188Z,41.43
2022-11-15T18:42:10.277Z,43.30
2022-11-15T18:45:14.451Z,39.80
2022-11-15T18:48:17.418Z,42.30
2022-11-15T18:51:22.635Z,43.20
2022-11-15T18:54:31.072Z,41.07
2022-11-15T18:57:34.602Z,41.77
2022-11-15T19:00:37.693Z,42.30
2022-11-15T19:03:44.148Z,43.23
2022-11-15T19:06:49.491Z,44.80
2022-11-15T19:09:53.929Z,45.77
2022-11-15T19:12:57.673Z,45.50
2022-11-15T19:16:02.590Z,44.63
2022-11-15T19:19:07.982Z,45.13
2022-11-15T19:22:11.102Z,45.67
2022-11-15T19:25:15.430Z,45.97
2022-11-15T19:28:19.383Z,45.70
2022-11-15T19:31:24.612Z,47.30
2022-11-15T19:34:27.551Z,45.37
2022-11-15T19:37:30.617Z,44.43
2022-11-15T19:40:35.408Z,46.10
2022-11-15T19:43:38.614Z,44.13
2022-11-15T19:46:42.639Z,45.33
2022-11-15T19:49:46.543Z,44.40
2022-11-15T19:52:49.798Z,44.87
2022-11-15T19:55:59.105Z,43.20
2022-11-15T19:59:03.517Z,43.97
2022-11-15T20:02:06.460Z,44.17
2022-11-15T20:05:15.565Z,43.87
2022-11-15T20:08:21.312Z,43.73
2022-11-15T20:11:27.973Z,45.33
2022-11-15T20:14:32.135Z,43.07
2022-11-15T20:17:35.372Z,42.43
2022-11-15T20:20:38.434Z,42.57
2022-11-15T20:23:41.909Z,43.90
2022-11-15T20:26:46.928Z,38.67
2022-11-15T20:29:51.793Z,41.90
2022-11-15T20:32:55.123Z,40.63
2022-11-15T20:35:58.200Z,40.37
2022-11-15T20:39:01.815Z,42.37
2022-11-15T20:42:06.578Z,41.60
2022-11-15T20:45:10.776Z,40.13
2022-11-15T20:48:14.785Z,40.77
2022-11-15T20:51:19.576Z,41.57
2022-11-15T20:54:22.807Z,41.53
2022-11-15T20:57:27.189Z,42.43
2022-11-15T21:00:30.277Z,37.50
2022-11-15T21:03:33.687Z,40.23
2022-11-15T21:06:36.714Z,37.87
2022-11-15T21:09:57.267Z,38.83
2022-11-15T21:13:01.520Z,38.63
2022-11-15T21:16:05.558Z,39.87
2022-11-15T21:19:08.663Z,39.17
2022-11-15T21:22:15.060Z,39.07
2022-11-15T21:25:18.204Z,40.83
2022-11-15T21:28:24.325Z,38.03
2022-11-15T21:31:27.476Z,39.90
2022-11-15T21:34:30.406Z,39.93
2022-11-15T21:37:33.347Z,38.23
2022-11-15T21:40:36.436Z,41.67
2022-11-15T21:43:40.734Z,37.90
2022-11-15T21:46:43.717Z,37.87
2022-11-15T21:49:47.214Z,39.73
2022-11-15T21:52:50.146Z,39.50
2022-11-15T21:55:53.306Z,41.20
2022-11-15T21:58:58.753Z,41.83
2022-11-15T22:02:15.585Z,38.63
2022-11-15T22:05:18.510Z,42.80
2022-11-15T22:08:21.886Z,42.93
2022-11-15T22:11:24.975Z,43.83
2022-11-15T22:14:29.392Z,41.20
2022-11-15T22:17:46.326Z,43.27
2022-11-15T22:20:56.485Z,42.20
2022-11-15T22:23:59.692Z,43.50
2022-11-15T22:27:02.618Z,45.33
2022-11-15T22:30:11.543Z,41.97
2022-11-15T22:33:15.614Z,42.13
2022-11-15T22:36:18.692Z,40.40
2022-11-15T22:39:21.628Z,41.60
2022-11-15T22:42:24.709Z,42.33
2022-11-15T22:45:28.988Z,42.00
2022-11-15T22:48:35.052Z,43.47
2022-11-15T22:51:40.399Z,44.93
2022-11-15T22:54:46.003Z,43.10
2022-11-15T22:57:48.986Z,45.07
2022-11-15T23:00:56.573Z,43.23
2022-11-15T23:03:59.770Z,46.13
2022-11-15T23:07:02.861Z,45.13
2022-11-15T23:10:20.602Z,42.53
2022-11-15T23:13:24.484Z,40.23
2022-11-15T23:16:35.172Z,40.97
2022-11-15T23:19:38.106Z,40.03
2022-11-15T23:22:49.932Z,40.17
2022-11-15T23:25:59.707Z,42.80
2022-11-15T23:29:02.819Z,43.90
2022-11-15T23:32:30.618Z,43.23
2022-11-15T23:35:33.777Z,44.03
2022-11-15T23:38:38.171Z,44.73
2022-11-15T23:41:41.152Z,44.00
2022-11-15T23:44:44.324Z,42.17
2022-11-15T23:47:48.614Z,44.37
2022-11-15T23:50:51.548Z,43.23
2022-11-15T23:53:54.511Z,44.57
2022-11-15T23:56:57.627Z,41.07
